createdAt,value
2022-10-22T00:00:18.098Z,98548.53
2022-10-22T00:02:45.337Z,98543.97
2022-10-22T00:05:12.434Z,98536.50
2022-10-22T00:07:39.942Z,98534.66
2022-10-22T00:10:08.187Z,98539.31
2022-10-22T00:12:35.839Z,98554.91
2022-10-22T00:15:03.940Z,98564.28
2022-10-22T00:17:30.842Z,98569.13
2022-10-22T00:19:58.075Z,98573.06
2022-10-22T00:22:24.878Z,98571.22
2022-10-22T00:24:51.770Z,98581.97
2022-10-22T00:27:18.774Z,98578.81
2022-10-22T00:29:45.662Z,98567.22
2022-10-22T00:32:12.941Z,98579.38
2022-10-22T00:34:39.886Z,98584.56
2022-10-22T00:37:07.123Z,98579.31
2022-10-22T00:39:33.949Z,98582.34
2022-10-22T00:42:00.975Z,98584.91
2022-10-22T00:45:06.015Z,98588.22
2022-10-22T00:47:36.863Z,98586.91
2022-10-22T00:50:12.475Z,98593.13
2022-10-22T00:52:40.472Z,98596.78
2022-10-22T00:55:08.374Z,98611.00
2022-10-22T00:57:35.832Z,98611.84
2022-10-22T01:00:04.341Z,98613.81
2022-10-22T01:02:31.555Z,98604.06
2022-10-22T01:04:58.384Z,98594.56
2022-10-22T01:07:26.769Z,98592.84
2022-10-22T01:10:09.314Z,98589.84
2022-10-22T01:12:50.070Z,98584.00
2022-10-22T01:16:01.474Z,98572.25
2022-10-22T01:18:39.563Z,98571.16
2022-10-22T01:21:37.169Z,98560.13
2022-10-22T01:24:28.722Z,98550.00
2022-10-22T01:27:07.773Z,98545.16
2022-10-22T01:29:44.143Z,98534.31
2022-10-22T01:32:23.364Z,98541.91
2022-10-22T01:34:57.900Z,98536.22
2022-10-22T01:37:26.680Z,98526.38
2022-10-22T01:39:53.630Z,98529.66
2022-10-22T01:42:24.173Z,98510.25
2022-10-22T01:44:50.997Z,98526.09
2022-10-22T01:47:41.575Z,98520.25
2022-10-22T01:50:25.707Z,98527.84
2022-10-22T01:53:21.973Z,98524.75
2022-10-22T01:56:26.704Z,98537.53
2022-10-22T01:59:22.706Z,98534.41
2022-10-22T02:01:56.569Z,98540.06
2022-10-22T02:04:45.791Z,98536.63
2022-10-22T02:07:16.333Z,98548.81
2022-10-22T02:09:43.891Z,98548.81
2022-10-22T02:12:11.061Z,98556.94
2022-10-22T02:14:41.274Z,98554.56
2022-10-22T02:17:11.065Z,98553.56
2022-10-22T02:19:58.737Z,98551.28
2022-10-22T02:22:26.331Z,98545.53
2022-10-22T02:24:53.623Z,98548.81
2022-10-22T02:27:31.187Z,98556.75
2022-10-22T02:30:09.720Z,98556.22
2022-10-22T02:33:04.897Z,98562.34
2022-10-22T02:35:32.232Z,98553.94
2022-10-22T02:37:59.937Z,98563.97
2022-10-22T02:40:27.471Z,98557.94
2022-10-22T02:42:54.327Z,98559.31
2022-10-22T02:45:21.289Z,98552.56
2022-10-22T02:47:48.431Z,98546.25
2022-10-22T02:50:15.428Z,98551.38
2022-10-22T02:52:42.763Z,98549.75
2022-10-22T02:55:09.924Z,98548.91
2022-10-22T02:57:37.372Z,98548.91
2022-10-22T03:00:06.435Z,98552.38
2022-10-22T03:02:33.651Z,98548.91
2022-10-22T03:05:01.026Z,98540.16
2022-10-22T03:07:31.019Z,98548.72
2022-10-22T03:09:58.058Z,98553.38
2022-10-22T03:12:24.972Z,98556.09
2022-10-22T03:14:51.732Z,98569.88
2022-10-22T03:17:18.897Z,98571.03
2022-10-22T03:19:45.604Z,98574.81
2022-10-22T03:22:25.668Z,98577.91
2022-10-22T03:24:57.901Z,98589.88
2022-10-22T03:27:25.178Z,98594.78
2022-10-22T03:29:52.942Z,98595.53
2022-10-22T03:32:20.094Z,98587.59
2022-10-22T03:34:47.254Z,98584.56
2022-10-22T03:37:14.530Z,98576.56
2022-10-22T03:39:44.316Z,98604.66
2022-10-22T03:42:13.532Z,98606.63
2022-10-22T03:44:40.811Z,98613.00
2022-10-22T03:47:08.479Z,98609.28
2022-10-22T03:49:35.529Z,98612.31
2022-10-22T03:52:09.952Z,98616.84
2022-10-22T03:57:24.083Z,98620.25
2022-10-22T03:59:51.673Z,98621.16
2022-10-22T04:02:19.252Z,98607.56
2022-10-22T04:04:46.452Z,98630.38
2022-10-22T04:07:13.626Z,98623.25
2022-10-22T04:09:40.493Z,98627.56
2022-10-22T04:12:08.606Z,98629.81
2022-10-22T04:14:35.843Z,98627.84
2022-10-22T04:17:02.945Z,98630.19
2022-10-22T04:19:30.296Z,98631.66
2022-10-22T04:22:01.138Z,98633.94
2022-10-22T04:24:28.172Z,98635.94
2022-10-22T04:26:55.990Z,98639.88
2022-10-22T04:29:23.751Z,98646.69
2022-10-22T04:31:51.029Z,98644.88
2022-10-22T04:34:17.986Z,98648.78
2022-10-22T04:36:45.096Z,98642.25
2022-10-22T04:39:12.204Z,98639.31
2022-10-22T04:41:39.870Z,98651.53
2022-10-22T04:44:12.245Z,98650.81
2022-10-22T04:46:42.997Z,98647.31
2022-10-22T04:49:10.011Z,98652.09
2022-10-22T04:51:37.404Z,98649.47
2022-10-22T04:54:05.024Z,98645.84
2022-10-22T04:56:32.777Z,98640.84
2022-10-22T04:59:05.202Z,98641.75
2022-10-22T05:01:42.866Z,98647.69
2022-10-22T05:04:16.424Z,98645.06
2022-10-22T05:06:43.569Z,98641.75
2022-10-22T05:09:18.559Z,98651.59
2022-10-22T05:11:48.979Z,98651.75
2022-10-22T05:14:21.783Z,98654.69
2022-10-22T05:16:49.563Z,98652.31
2022-10-22T05:19:19.463Z,98652.16
2022-10-22T05:21:49.366Z,98645.06
2022-10-22T05:24:16.172Z,98646.75
2022-10-22T05:26:43.340Z,98649.06
2022-10-22T05:29:10.200Z,98642.47
2022-10-22T05:31:37.336Z,98645.75
2022-10-22T05:34:04.351Z,98646.75
2022-10-22T05:36:31.107Z,98634.91
2022-10-22T05:38:58.275Z,98644.09
2022-10-22T05:41:27.639Z,98642.84
2022-10-22T05:44:00.487Z,98645.84
2022-10-22T05:46:29.899Z,98657.00
2022-10-22T05:49:02.973Z,98660.81
2022-10-22T05:51:31.843Z,98658.00
2022-10-22T05:54:01.375Z,98658.16
2022-10-22T05:56:29.980Z,98655.91
2022-10-22T05:58:57.280Z,98660.34
2022-10-22T06:01:29.717Z,98666.66
2022-10-22T06:03:59.183Z,98672.44
2022-10-22T06:06:35.435Z,98663.25
2022-10-22T06:09:10.545Z,98667.53
2022-10-22T06:11:37.790Z,98668.53
2022-10-22T06:14:04.709Z,98671.53
2022-10-22T06:16:32.509Z,98681.47
2022-10-22T06:19:02.228Z,98679.22
2022-10-22T06:21:30.718Z,98698.72
2022-10-22T06:23:58.751Z,98704.53
2022-10-22T06:26:25.989Z,98700.72
2022-10-22T06:28:53.118Z,98718.28
2022-10-22T06:31:20.361Z,98719.16
2022-10-22T06:33:47.817Z,98736.41
2022-10-22T06:36:17.519Z,98747.75
2022-10-22T06:38:44.779Z,98755.31
2022-10-22T06:41:16.556Z,98773.34
2022-10-22T06:43:47.275Z,98761.91
2022-10-22T06:46:19.165Z,98784.06
2022-10-22T06:48:59.603Z,98776.75
2022-10-22T06:51:27.433Z,98771.16
2022-10-22T06:53:55.755Z,98771.91
2022-10-22T06:56:23.667Z,98781.03
2022-10-22T06:58:52.252Z,98783.50
2022-10-22T07:01:24.422Z,98778.69
2022-10-22T07:03:52.178Z,98790.44
2022-10-22T07:06:20.003Z,98798.00
2022-10-22T07:08:47.201Z,98805.63
2022-10-22T07:11:25.760Z,98816.72
2022-10-22T07:13:58.158Z,98825.28
2022-10-22T07:16:29.607Z,98819.88
2022-10-22T07:19:00.376Z,98824.69
2022-10-22T07:21:27.366Z,98838.06
2022-10-22T07:23:54.410Z,98839.50
2022-10-22T07:26:21.444Z,98840.19
2022-10-22T07:28:48.479Z,98848.09
2022-10-22T07:31:16.199Z,98845.63
2022-10-22T07:33:42.968Z,98853.41
2022-10-22T07:36:17.975Z,98854.56
2022-10-22T07:38:50.038Z,98857.00
2022-10-22T07:41:17.529Z,98861.41
2022-10-22T07:43:44.955Z,98858.72
2022-10-22T07:46:12.138Z,98852.16
2022-10-22T07:48:39.700Z,98855.69
2022-10-22T07:51:06.803Z,98854.81
2022-10-22T07:53:34.153Z,98862.59
2022-10-22T07:56:00.931Z,98865.06
2022-10-22T07:58:27.723Z,98866.72
2022-10-22T08:00:58.708Z,98865.31
2022-10-22T08:03:25.646Z,98866.06
2022-10-22T08:05:53.117Z,98869.78
2022-10-22T08:08:20.554Z,98870.63
2022-10-22T08:10:48.904Z,98878.97
2022-10-22T08:13:17.153Z,98868.38
2022-10-22T08:18:11.713Z,98869.31
2022-10-22T08:20:38.456Z,98863.59
2022-10-22T08:23:05.503Z,98874.53
2022-10-22T08:25:32.715Z,98874.50
2022-10-22T08:27:59.609Z,98872.56
2022-10-22T08:30:28.016Z,98870.50
2022-10-22T08:32:54.938Z,98875.41
2022-10-22T08:35:22.091Z,98881.28
2022-10-22T08:37:48.915Z,98879.47
2022-10-22T08:40:26.725Z,98885.75
2022-10-22T08:43:24.395Z,98891.41
2022-10-22T08:46:17.665Z,98888.50
2022-10-22T08:48:55.558Z,98893.09
2022-10-22T08:51:25.304Z,98887.75
2022-10-22T08:54:10.856Z,98889.56
2022-10-22T08:56:38.498Z,98898.53
2022-10-22T08:59:24.968Z,98899.66
2022-10-22T09:01:53.732Z,98901.47
2022-10-22T09:04:27.110Z,98901.34
2022-10-22T09:06:55.824Z,98904.59
2022-10-22T09:09:24.684Z,98903.50
2022-10-22T09:11:52.540Z,98904.97
2022-10-22T09:14:21.893Z,98911.53
2022-10-22T09:17:34.117Z,98906.69
2022-10-22T09:20:16.109Z,98911.97
2022-10-22T09:23:20.655Z,98907.84
2022-10-22T09:25:49.640Z,98903.03
2022-10-22T09:28:16.448Z,98914.44
2022-10-22T09:30:43.663Z,98917.78
2022-10-22T09:33:18.238Z,98916.66
2022-10-22T09:36:05.846Z,98919.97
2022-10-22T09:38:35.109Z,98917.03
2022-10-22T09:41:04.237Z,98923.81
2022-10-22T09:43:31.817Z,98922.69
2022-10-22T09:46:01.270Z,98923.69
2022-10-22T09:48:31.581Z,98926.69
2022-10-22T09:51:15.719Z,98929.00
2022-10-22T09:53:44.710Z,98929.63
2022-10-22T09:56:21.876Z,98930.56
2022-10-22T09:58:52.142Z,98933.84
2022-10-22T10:01:24.400Z,98935.97
2022-10-22T10:03:51.135Z,98925.91
2022-10-22T10:06:20.429Z,98931.31
2022-10-22T10:08:47.802Z,98932.78
2022-10-22T10:11:29.579Z,98939.91
2022-10-22T10:14:12.880Z,98935.78
2022-10-22T10:16:50.140Z,98937.81
2022-10-22T10:19:35.595Z,98943.56
2022-10-22T10:22:30.850Z,98946.88
2022-10-22T10:25:13.487Z,98947.41
2022-10-22T10:27:45.905Z,98947.22
2022-10-22T10:30:17.929Z,98944.50
2022-10-22T10:33:26.621Z,98937.91
2022-10-22T10:36:04.781Z,98951.06
2022-10-22T10:39:04.009Z,98947.06
2022-10-22T10:41:42.996Z,98946.69
2022-10-22T10:44:43.205Z,98944.66
2022-10-22T10:48:11.421Z,98948.16
2022-10-22T10:50:59.110Z,98947.50
2022-10-22T10:54:13.907Z,98957.59
2022-10-22T10:56:46.023Z,98955.28
2022-10-22T10:59:54.984Z,98953.06
2022-10-22T11:02:42.527Z,98955.53
2022-10-22T11:05:39.611Z,98952.63
2022-10-22T11:08:19.978Z,98949.34
2022-10-22T11:10:49.370Z,98953.91
2022-10-22T11:13:46.235Z,98951.06
2022-10-22T11:16:54.527Z,98946.53
2022-10-22T11:19:50.306Z,98953.91
2022-10-22T11:22:38.214Z,98942.28
2022-10-22T11:25:16.275Z,98952.28
2022-10-22T11:27:49.392Z,98953.00
2022-10-22T11:30:21.801Z,98947.25
2022-10-22T11:33:00.136Z,98945.53
2022-10-22T11:35:40.042Z,98948.88
2022-10-22T11:38:09.874Z,98951.00
2022-10-22T11:40:38.772Z,98941.66
2022-10-22T11:43:08.309Z,98947.91
2022-10-22T11:45:41.012Z,98943.25
2022-10-22T11:48:17.019Z,98937.28
2022-10-22T11:50:56.819Z,98939.13
2022-10-22T11:53:30.821Z,98940.25
2022-10-22T11:56:00.311Z,98944.56
2022-10-22T11:58:45.196Z,98945.41
2022-10-22T12:01:42.285Z,98940.25
2022-10-22T12:04:16.521Z,98941.03
2022-10-22T12:06:53.771Z,98944.03
2022-10-22T12:09:23.928Z,98947.88
2022-10-22T12:11:50.977Z,98951.81
2022-10-22T12:14:29.829Z,98937.28
2022-10-22T12:17:02.658Z,98936.94
2022-10-22T12:19:37.342Z,98935.50
2022-10-22T12:22:26.804Z,98923.63
2022-10-22T12:24:55.831Z,98918.31
2022-10-22T12:27:28.037Z,98922.84
2022-10-22T12:29:56.655Z,98916.41
2022-10-22T12:32:24.277Z,98913.09
2022-10-22T12:34:52.621Z,98917.75
2022-10-22T12:37:19.805Z,98922.84
2022-10-22T12:39:47.448Z,98920.31
2022-10-22T12:42:16.511Z,98920.13
2022-10-22T12:44:46.406Z,98915.59
2022-10-22T12:47:17.725Z,98908.19
2022-10-22T12:49:49.707Z,98911.19
2022-10-22T12:52:20.844Z,98905.06
2022-10-22T12:54:52.577Z,98913.84
2022-10-22T12:57:20.635Z,98905.06
2022-10-22T12:59:49.940Z,98909.97
2022-10-22T13:02:24.118Z,98908.34
2022-10-22T13:05:39.030Z,98902.94
2022-10-22T13:08:18.363Z,98908.13
2022-10-22T13:10:53.318Z,98911.47
2022-10-22T13:13:34.917Z,98919.69
2022-10-22T13:16:28.075Z,98914.50
2022-10-22T13:18:55.056Z,98904.59
2022-10-22T13:21:38.160Z,98912.97
2022-10-22T13:24:23.872Z,98918.25
2022-10-22T13:26:51.677Z,98925.44
2022-10-22T13:29:22.016Z,98923.75
2022-10-22T13:31:51.435Z,98925.59
2022-10-22T13:34:20.790Z,98927.69
2022-10-22T13:36:48.361Z,98931.75
2022-10-22T13:39:20.362Z,98925.81
2022-10-22T13:41:48.150Z,98924.22
2022-10-22T13:44:14.949Z,98931.78
2022-10-22T13:46:42.911Z,98930.47
2022-10-22T13:49:18.140Z,98932.72
2022-10-22T13:51:45.154Z,98929.44
2022-10-22T13:54:16.303Z,98939.41
2022-10-22T13:56:43.077Z,98940.19
2022-10-22T13:59:10.454Z,98943.88
2022-10-22T14:01:37.914Z,98945.69
2022-10-22T14:04:06.525Z,98935.81
2022-10-22T14:09:21.505Z,98947.22
2022-10-22T14:11:48.231Z,98950.19
2022-10-22T14:14:17.458Z,98944.84
2022-10-22T14:16:44.570Z,98946.88
2022-10-22T14:19:15.967Z,98949.34
2022-10-22T14:21:42.714Z,98952.00
2022-10-22T14:24:13.009Z,98950.13
2022-10-22T14:26:40.366Z,98943.09
2022-10-22T14:29:11.345Z,98943.88
2022-10-22T14:34:07.369Z,98956.06
2022-10-22T14:36:34.069Z,98953.53
2022-10-22T14:39:00.838Z,98955.75
2022-10-22T14:41:29.206Z,98948.34
2022-10-22T14:43:56.285Z,98944.88
2022-10-22T14:46:23.031Z,98955.56
2022-10-22T14:48:49.805Z,98951.50
2022-10-22T14:51:18.541Z,98962.19
2022-10-22T14:53:45.594Z,98957.97
2022-10-22T14:56:13.801Z,98962.91
2022-10-22T14:58:41.081Z,98969.88
2022-10-22T15:01:08.936Z,98962.75
2022-10-22T15:03:36.053Z,98966.03
2022-10-22T15:06:03.013Z,98958.63
2022-10-22T15:08:29.799Z,98968.44
2022-10-22T15:11:01.849Z,98972.50
2022-10-22T15:13:29.648Z,98970.47
2022-10-22T15:15:57.579Z,98975.34
2022-10-22T15:18:24.933Z,98975.16
2022-10-22T15:21:02.772Z,98967.81
2022-10-22T15:23:30.041Z,98962.03
2022-10-22T15:25:57.324Z,98966.41
2022-10-22T15:28:25.083Z,98975.59
2022-10-22T15:30:57.006Z,98981.22
2022-10-22T15:33:23.843Z,98977.00
2022-10-22T15:35:50.589Z,98978.84
2022-10-22T15:38:17.769Z,98984.91
2022-10-22T15:40:44.755Z,98985.03
2022-10-22T15:43:11.846Z,98990.41
2022-10-22T15:45:39.242Z,98996.63
2022-10-22T15:48:06.576Z,98994.44
2022-10-22T15:50:38.185Z,99006.44
2022-10-22T15:53:05.915Z,99016.94
2022-10-22T15:55:32.785Z,99003.97
2022-10-22T15:58:01.934Z,99003.69
2022-10-22T16:00:31.014Z,99013.53
2022-10-22T16:02:57.833Z,99018.81
2022-10-22T16:05:24.590Z,99017.53
2022-10-22T16:07:53.331Z,99028.34
2022-10-22T16:10:20.241Z,99017.34
2022-10-22T16:12:47.002Z,99024.56
2022-10-22T16:15:13.885Z,99023.25
2022-10-22T16:17:40.700Z,99028.56
2022-10-22T16:20:08.248Z,99035.16
2022-10-22T16:22:34.958Z,99033.34
2022-10-22T16:25:02.064Z,99031.03
2022-10-22T16:27:28.912Z,99034.25
2022-10-22T16:29:55.809Z,99049.50
2022-10-22T16:32:23.259Z,99042.94
2022-10-22T16:34:50.079Z,99046.94
2022-10-22T16:37:16.928Z,99054.75
2022-10-22T16:39:43.727Z,99049.66
2022-10-22T16:42:10.485Z,99055.34
2022-10-22T16:44:37.730Z,99053.13
2022-10-22T16:47:04.930Z,99054.38
2022-10-22T16:49:31.714Z,99053.47
2022-10-22T16:51:58.683Z,99058.44
2022-10-22T16:54:25.762Z,99065.00
2022-10-22T16:56:52.733Z,99061.72
2022-10-22T16:59:19.667Z,99062.78
2022-10-22T17:01:46.421Z,99058.56
2022-10-22T17:04:13.725Z,99063.03
2022-10-22T17:06:41.016Z,99059.94
2022-10-22T17:09:07.880Z,99062.44
2022-10-22T17:11:37.151Z,99062.50
2022-10-22T17:14:06.109Z,99064.50
2022-10-22T17:16:33.182Z,99063.97
2022-10-22T17:19:00.271Z,99056.19
2022-10-22T17:21:27.175Z,99067.59
2022-10-22T17:23:56.284Z,99063.34
2022-10-22T17:26:27.115Z,99069.00
2022-10-22T17:28:54.735Z,99061.75
2022-10-22T17:31:24.157Z,99066.50
2022-10-22T17:33:52.737Z,99071.00
2022-10-22T17:36:20.698Z,99066.03
2022-10-22T17:38:50.438Z,99074.16
2022-10-22T17:41:20.484Z,99082.66
2022-10-22T17:43:47.706Z,99073.75
2022-10-22T17:46:22.391Z,99075.78
2022-10-22T17:48:56.530Z,99074.47
2022-10-22T17:51:25.660Z,99077.00
2022-10-22T17:53:52.985Z,99077.81
2022-10-22T17:56:22.177Z,99087.75
2022-10-22T17:58:49.523Z,99087.09
2022-10-22T18:01:27.151Z,99097.06
2022-10-22T18:03:55.410Z,99094.09
2022-10-22T18:06:22.207Z,99099.38
2022-10-22T18:08:49.114Z,99098.91
2022-10-22T18:11:21.380Z,99102.72
2022-10-22T18:13:52.750Z,99099.09
2022-10-22T18:16:20.073Z,99101.78
2022-10-22T18:18:51.001Z,99102.09
2022-10-22T18:21:18.276Z,99101.16
2022-10-22T18:23:46.270Z,99097.69
2022-10-22T18:26:13.707Z,99108.28
2022-10-22T18:28:40.905Z,99093.06
2022-10-22T18:31:09.562Z,99097.91
2022-10-22T18:33:37.942Z,99106.63
2022-10-22T18:36:10.355Z,99107.16
2022-10-22T18:38:41.041Z,99112.09
2022-10-22T18:41:10.204Z,99118.06
2022-10-22T18:43:37.192Z,99113.41
2022-10-22T18:46:07.306Z,99119.69
2022-10-22T18:48:35.569Z,99118.91
2022-10-22T18:51:08.648Z,99119.53
2022-10-22T18:53:37.393Z,99113.59
2022-10-22T18:56:09.543Z,99128.13
2022-10-22T18:58:45.457Z,99129.63
2022-10-22T19:01:21.017Z,99130.63
2022-10-22T19:03:48.748Z,99125.50
2022-10-22T19:06:16.811Z,99120.06
2022-10-22T19:08:45.846Z,99122.69
2022-10-22T19:11:16.464Z,99124.00
2022-10-22T19:13:43.285Z,99123.34
2022-10-22T19:16:13.259Z,99118.53
2022-10-22T19:18:40.378Z,99119.03
2022-10-22T19:21:07.332Z,99119.19
2022-10-22T19:23:34.523Z,99121.03
2022-10-22T19:26:06.490Z,99123.69
2022-10-22T19:28:33.816Z,99123.69
2022-10-22T19:31:00.637Z,99127.97
2022-10-22T19:33:28.235Z,99129.94
2022-10-22T19:35:55.202Z,99138.88
2022-10-22T19:38:23.750Z,99141.69
2022-10-22T19:40:51.975Z,99141.84
2022-10-22T19:43:19.082Z,99143.31
2022-10-22T19:45:45.951Z,99140.84
2022-10-22T19:48:12.679Z,99147.63
2022-10-22T19:50:39.695Z,99149.25
2022-10-22T19:53:06.462Z,99148.28
2022-10-22T19:55:33.280Z,99150.75
2022-10-22T19:58:00.046Z,99154.22
2022-10-22T20:00:28.561Z,99153.06
2022-10-22T20:02:55.326Z,99150.59
2022-10-22T20:07:50.023Z,99158.34
2022-10-22T20:10:16.748Z,99170.72
2022-10-22T20:12:43.555Z,99162.31
2022-10-22T20:15:10.383Z,99162.31
2022-10-22T20:17:37.207Z,99166.25
2022-10-22T20:20:04.358Z,99153.41
2022-10-22T20:22:31.280Z,99163.13
2022-10-22T20:24:58.216Z,99156.38
2022-10-22T20:27:25.085Z,99143.81
2022-10-22T20:29:51.986Z,99156.84
2022-10-22T20:32:18.814Z,99149.56
2022-10-22T20:34:45.686Z,99146.78
2022-10-22T20:37:12.546Z,99150.56
2022-10-22T20:39:39.349Z,99152.69
2022-10-22T20:42:06.117Z,99151.03
2022-10-22T20:44:32.931Z,99142.94
2022-10-22T20:46:59.652Z,99147.59
2022-10-22T20:49:27.249Z,99141.97
2022-10-22T20:51:54.059Z,99148.88
2022-10-22T20:54:21.059Z,99141.16
2022-10-22T20:56:48.242Z,99149.38
2022-10-22T20:59:15.953Z,99153.38
2022-10-22T21:01:53.235Z,99161.59
2022-10-22T21:04:21.749Z,99163.09
2022-10-22T21:06:50.351Z,99167.22
2022-10-22T21:09:17.528Z,99161.59
2022-10-22T21:11:44.834Z,99166.72
2022-10-22T21:14:13.818Z,99170.03
2022-10-22T21:16:42.199Z,99167.72
2022-10-22T21:19:09.279Z,99166.22
2022-10-22T21:21:36.207Z,99164.25
2022-10-22T21:24:03.093Z,99169.56
2022-10-22T21:26:29.855Z,99173.53
2022-10-22T21:28:56.862Z,99180.78
2022-10-22T21:31:26.352Z,99175.50
2022-10-22T21:33:53.812Z,99173.53
2022-10-22T21:36:22.981Z,99165.78
2022-10-22T21:38:52.003Z,99164.44
2022-10-22T21:41:20.255Z,99160.78
2022-10-22T21:43:47.343Z,99160.47
2022-10-22T21:46:19.345Z,99158.84
2022-10-22T21:48:47.358Z,99163.28
2022-10-22T21:51:16.921Z,99169.22
2022-10-22T21:53:44.330Z,99158.97
2022-10-22T21:56:16.954Z,99156.66
2022-10-22T21:58:43.901Z,99152.69
2022-10-22T22:01:11.229Z,99157.47
2022-10-22T22:03:38.680Z,99163.06
2022-10-22T22:06:07.164Z,99152.25
2022-10-22T22:08:34.392Z,99162.97
2022-10-22T22:11:06.979Z,99157.47
2022-10-22T22:13:34.075Z,99152.03
2022-10-22T22:16:08.745Z,99165.38
2022-10-22T22:18:36.482Z,99157.13
2022-10-22T22:21:05.521Z,99154.81
2022-10-22T22:23:32.916Z,99156.75
2022-10-22T22:26:00.649Z,99147.50
2022-10-22T22:28:29.224Z,99146.19
2022-10-22T22:30:56.681Z,99138.41
2022-10-22T22:33:23.514Z,99131.28
2022-10-22T22:35:50.531Z,99133.56
2022-10-22T22:38:17.279Z,99137.69
2022-10-22T22:40:44.307Z,99142.81
2022-10-22T22:43:11.709Z,99135.22
2022-10-22T22:45:40.978Z,99136.00
2022-10-22T22:48:08.011Z,99144.25
2022-10-22T22:50:36.668Z,99145.47
2022-10-22T22:53:03.476Z,99141.47
2022-10-22T22:55:32.126Z,99145.56
2022-10-22T22:57:59.160Z,99145.03
2022-10-22T23:00:26.240Z,99148.97
2022-10-22T23:02:56.188Z,99143.00
2022-10-22T23:05:23.199Z,99143.00
2022-10-22T23:07:50.051Z,99138.38
2022-10-22T23:10:17.243Z,99134.91
2022-10-22T23:12:44.572Z,99132.44
2022-10-22T23:15:11.889Z,99136.03
2022-10-22T23:17:39.889Z,99139.66
2022-10-22T23:20:07.870Z,99135.69
2022-10-22T23:22:34.632Z,99131.53
2022-10-22T23:25:01.605Z,99131.72
2022-10-22T23:27:28.379Z,99130.03
2022-10-22T23:29:55.184Z,99129.53
2022-10-22T23:32:21.862Z,99124.00
2022-10-22T23:34:48.561Z,99117.69
2022-10-22T23:37:15.314Z,99131.28
2022-10-22T23:39:42.286Z,99131.81
2022-10-22T23:42:09.105Z,99127.84
2022-10-22T23:44:36.075Z,99126.34
2022-10-22T23:47:02.844Z,99122.97
2022-10-22T23:49:29.774Z,99116.72
2022-10-22T23:51:56.478Z,99116.84
2022-10-22T23:54:23.323Z,99115.00
2022-10-22T23:56:50.020Z,99109.88
2022-10-22T23:59:16.801Z,99118.44
